LPPTGMMX

Guest
Details From LPPT - Lisboa
To GMMX - MENARA
Flight Number -
Tags generated
Created
Modified
Stats Distance 454 nm / 841 km
Max Altitude 35,000 ft / 10,668 m
Waypoints 10
Social Downloads 0
Likes 0
Share VATSIM

Download

Looking for another format? Having issues loading an existing format? Contact us
Advertisement - Login to hide

Notes

Basic altitude profile: - Ascent Rate: 2500ft/min - Ascent Speed: 250kts - Cruise Altitude: 35000ft - Cruise Speed: 420kts - Descent Rate: 1500ft/min - Descent Speed: 250kts Options: - Use NATs: yes - Use PACOTS: yes - Use low airways: no - Use high airways: yes

Route

LPPT ESP UZ5 VFA UP600 AMSEL UR72 CSD GMMX

ID Type Via Altitude (ft/m) Position (lat/lon) Dist (leg/tot) Name
O LPPT APT - 0 / 0 38.77856 / -9.13515 - / 0 nm Lisboa
ESP VOR - 7,600 / 2,316 38.42427 / -9.18578 21 / 21 nm ESPICHEL VORTAC
VFA VOR UZ5 (AWY-HI) 35,000 / 10,668 37.01352 / -7.97501 102 / 123 nm FARO VOR-DME
AMSEL FIX UP600 (AWY-HI) 35,000 / 10,668 35.96667 / -7.88333 63 / 186 nm
ABODA FIX UR72 (AWY-HI) 35,000 / 10,668 35.41389 / -7.83333 33 / 220 nm
AKEMA FIX UR72 (AWY-HI) 35,000 / 10,668 34.60056 / -7.77667 48 / 269 nm
LAKAM FIX UR72 (AWY-HI) 33,300 / 10,150 34.18861 / -7.71444 24 / 293 nm
CBA VOR UR72 (AWY-HI) 25,700 / 7,833 33.52150 / -7.67719 40 / 334 nm CASABLANCA VOR-DME
CSD NDB UR72 (AWY-HI) 24,500 / 7,468 32.93361 / -8.06500 40 / 374 nm DAOUARAT NDB
O GMMX APT - 0 / 0 31.60692 / -8.03627 79 / 454 nm MENARA

Altitude Profile

Advertisement - Login to hide

Weather


0- 5 10 15 20 25 30 35+ Temperature / °C

Clouds and Precipitation
Forecast for 2018-12-15 06:00 UTC. Updated 4 hours ago

Ground ~20,000 ft ~40,000 ft Winds

LPPT

Details ICAO LPPT (LIS)
Name Lisbon Portela Intl
Region Portugal
Timezone Europe/Lisbon (UTC+0.0)
Stats Elevation 374 ft / 114 m (AMSL)
Location 38.778500° -9.135280°
Runways 2
Magnetic Variation 2.239° W

METAR

LPPT 150700Z 21009KT 9999 BKN024 14/11 Q1026

Decode

TAF

TAF TAF LPPT 150500Z 1506/1612 22005KT 9999 SCT015 BKN025 BECMG 1510/1512 22012KT PROB40 TEMPO 1515/1521 5000 -RA SCT010 BKN020 BECMG 1521/1524 5000 DZRA BR SCT008 BKN015 TEMPO 1602/1606 2000 RA BR SCT002 BKN004 BECMG 1604/1606 30008KT BECMG 1606/1608 9999 NSW FEW010 SCT020

Decode

Departure Runways

ID Width Length Bearing (true/mag) Surface Threshold Overrun Markings Lighting
03 148 ft / 45 m 12,167 ft / 3,708 m 22.70° / 24.94° ASPHALT 302 ft / 92 m 0 ft / 0 m PREC-APP CENTERLINE EDGE THRESHOLD ALSF-I TDZ REIL-OMNI
17 148 ft / 45 m 7,602 ft / 2,317 m 168.10° / 170.34° CONCRETE 0 ft / 0 m 0 ft / 0 m PREC-APP CENTERLINE EDGE THRESHOLD TDZ REIL-OMNI
21 148 ft / 45 m 12,167 ft / 3,708 m 202.71° / 204.95° ASPHALT 1,634 ft / 498 m 0 ft / 0 m PREC-APP CENTERLINE EDGE THRESHOLD ALSF-I TDZ REIL-OMNI
35 148 ft / 45 m 7,602 ft / 2,317 m 348.11° / 350.34° CONCRETE 197 ft / 60 m 0 ft / 0 m PREC-APP CENTERLINE EDGE THRESHOLD TDZ REIL-OMNI

GMMX

Details ICAO GMMX (RAK)
Name MENARA
Region Morocco
Timezone Africa/Casablanca (UTC+0.0)
Stats Elevation 1,544 ft / 471 m (AMSL)
Location 31.606900° -8.036270°
Runways 1
Magnetic Variation 1.888° W

METAR

GMMX 150700Z 09005KT CAVOK 07/06 Q1025 NOSIG

Decode

TAF

TAF GMMX 150500Z 1506/1612 08006KT 8000 NSC= TAF LFBL 150500Z 1506/1606 12006KT 7000 NSC PROB30 TEMPO 1506/1507 2000 BR BKN002 BECMG 1507/1509 BKN040 TEMPO 1511/1522 4000 -RA BKN006 BECMG 1522/1524 0500 FG VV/// TEMPO 1523/1606 0300 BECMG 1523/1601 22005KT

Decode

Destination Runways

ID Width Length Bearing (true/mag) Surface Threshold Overrun Markings Lighting
10 147 ft / 45 m 10,123 ft / 3,085 m 95.92° / 97.80° ASPHALT 0 ft / 0 m 33 ft / 10 m PREC-APP EDGE THRESHOLD
28 147 ft / 45 m 10,123 ft / 3,085 m 275.93° / 277.82° ASPHALT 0 ft / 0 m 20 ft / 6 m APP EDGE THRESHOLD

Approach Navaids

Runway Type Ident Frequency Range Bearing (true/mag) Slope Elevation
10 GS MAR 109.70 MHz 10 nm / 19 km 95.92° / 97.81 ° 3.00° 1,545 ft / 471 m (AMSL)
10 OM OM - - 96.00° / 97.88 ° - 1,545 ft / 471 m (AMSL)
10 LOC-ILS MAR 109.70 MHz 18 nm / 33 km 96.03° / 97.91 ° - 1,545 ft / 471 m (AMSL)
10 MM MM - - 96.00° / 97.88 ° - 1,545 ft / 471 m (AMSL)

Popular Alternatives